Time;durP1;ratioP1;P1;durP2;ratioP2;P2;SDS_P1;SDS_P2;PMS_P1;PMS_P2;Temp;Humidity;BMP_temperature;BMP_pressure;BME280_temperature;BME280_humidity;BME280_pressure;Samples;Min_cycle;Max_cycle;Signal;HPM_P1;HPM_P2
2022/12/03 00:01:59;;;;;;;14.35;9.93;;;;;;;;;;5059082;28;20131;-77
2022/12/03 00:04:25;;;;;;;18.42;11.48;;;;;;;;;;5070791;28;20913;-78
2022/12/03 00:06:51;;;;;;;14.20;9.82;;;;;;;;;;5068849;28;21989;-78
2022/12/03 00:09:17;;;;;;;15.75;10.27;;;;;;;;;;5042843;28;20102;-77
2022/12/03 00:11:44;;;;;;;14.93;10.40;;;;;;;;;;5052879;28;20115;-78
2022/12/03 00:14:10;;;;;;;16.10;9.88;;;;;;;;;;5054619;28;20049;-78
2022/12/03 00:16:36;;;;;;;18.63;10.63;;;;;;;;;;5051993;28;20042;-78
2022/12/03 00:19:02;;;;;;;17.00;10.93;;;;;;;;;;5040429;28;20167;-78
2022/12/03 00:21:28;;;;;;;20.33;11.90;;;;;;;;;;5068735;28;20063;-79
2022/12/03 00:23:54;;;;;;;17.95;10.02;;;;;;;;;;5032427;28;20076;-78
2022/12/03 00:26:20;;;;;;;17.38;11.90;;;;;;;;;;5050468;28;20036;-78
2022/12/03 00:28:46;;;;;;;16.15;10.90;;;;;;;;;;5032448;28;20058;-78
2022/12/03 00:31:12;;;;;;;17.15;11.43;;;;;;;;;;5049600;28;20052;-77
2022/12/03 00:33:38;;;;;;;18.92;10.95;;;;;;;;;;5051487;28;20076;-78
2022/12/03 00:36:04;;;;;;;16.50;11.65;;;;;;;;;;5048710;28;20159;-78
2022/12/03 00:38:30;;;;;;;17.35;11.05;;;;;;;;;;5052686;28;20049;-78
2022/12/03 00:40:56;;;;;;;19.38;11.63;;;;;;;;;;5049839;28;20056;-78
2022/12/03 00:43:22;;;;;;;17.27;11.38;;;;;;;;;;5050470;28;20055;-78
2022/12/03 00:45:49;;;;;;;17.40;10.93;;;;;;;;;;5055409;28;20052;-78
2022/12/03 00:48:15;;;;;;;17.20;11.70;;;;;;;;;;5051919;28;20048;-78
2022/12/03 00:50:41;;;;;;;18.70;11.15;;;;;;;;;;5050450;28;20135;-78
2022/12/03 00:53:07;;;;;;;18.40;12.00;;;;;;;;;;5051827;28;20090;-77
2022/12/03 00:55:33;;;;;;;15.25;10.88;;;;;;;;;;5035408;28;20060;-78
2022/12/03 00:57:59;;;;;;;20.42;11.95;;;;;;;;;;5034771;28;20055;-77
2022/12/03 01:00:25;;;;;;;17.23;11.48;;;;;;;;;;5045936;28;20576;-78
2022/12/03 01:02:52;;;;;;;16.75;11.35;;;;;;;;;;5037726;28;20036;-77
2022/12/03 01:05:18;;;;;;;17.08;11.50;;;;;;;;;;5049823;28;20143;-78
2022/12/03 01:07:44;;;;;;;18.60;11.20;;;;;;;;;;5049051;28;20041;-78
2022/12/03 01:10:11;;;;;;;15.25;10.55;;;;;;;;;;5048299;28;20048;-78
2022/12/03 01:12:37;;;;;;;20.23;11.73;;;;;;;;;;5048019;28;21027;-78
2022/12/03 01:15:03;;;;;;;16.92;10.65;;;;;;;;;;5069276;28;20430;-78
2022/12/03 01:17:29;;;;;;;19.88;11.80;;;;;;;;;;5032632;28;20044;-78
2022/12/03 01:19:56;;;;;;;18.42;11.27;;;;;;;;;;5032793;28;20040;-78
2022/12/03 01:22:22;;;;;;;17.73;11.73;;;;;;;;;;5068525;28;20064;-79
2022/12/03 01:24:48;;;;;;;19.00;11.57;;;;;;;;;;5049373;28;20127;-78
2022/12/03 01:27:14;;;;;;;17.88;12.25;;;;;;;;;;5048541;28;20055;-78
2022/12/03 01:29:40;;;;;;;15.23;9.93;;;;;;;;;;5036014;28;20112;-78
2022/12/03 01:32:16;;;;;;;20.17;11.27;;;;;;;;;;5028032;28;20171;-78
2022/12/03 01:34:46;;;;;;;22.20;11.73;;;;;;;;;;5018834;28;20052;-79
2022/12/03 01:37:12;;;;;;;17.80;11.18;;;;;;;;;;5031041;28;20048;-78
2022/12/03 01:39:38;;;;;;;16.80;11.10;;;;;;;;;;5045665;28;20171;-79
2022/12/03 01:42:05;;;;;;;18.00;11.43;;;;;;;;;;5049672;28;20225;-78
2022/12/03 01:44:32;;;;;;;19.35;11.93;;;;;;;;;;5035960;28;20051;-78
2022/12/03 01:46:59;;;;;;;20.58;11.88;;;;;;;;;;5048013;28;20483;-78
2022/12/03 01:49:27;;;;;;;17.88;11.60;;;;;;;;;;5044892;28;22219;-77
2022/12/03 01:51:53;;;;;;;21.50;12.63;;;;;;;;;;5068081;28;20074;-77
2022/12/03 01:54:21;;;;;;;20.33;12.23;;;;;;;;;;5049481;28;20051;-78
2022/12/03 01:56:47;;;;;;;20.60;12.30;;;;;;;;;;5049165;28;20051;-78
2022/12/03 01:59:18;;;;;;;19.30;11.98;;;;;;;;;;5030916;28;20063;-78
2022/12/03 02:01:44;;;;;;;19.95;12.70;;;;;;;;;;5067517;28;20862;-79
2022/12/03 02:04:14;;;;;;;20.95;12.55;;;;;;;;;;5068244;28;20078;-79
2022/12/03 02:06:41;;;;;;;18.88;12.05;;;;;;;;;;5054296;28;20094;-79
2022/12/03 02:09:09;;;;;;;18.13;11.45;;;;;;;;;;5050637;28;21817;-78
2022/12/03 02:11:37;;;;;;;17.63;11.48;;;;;;;;;;5046332;28;20492;-78
2022/12/03 02:14:06;;;;;;;20.00;12.00;;;;;;;;;;5051953;28;20036;-78
2022/12/03 02:16:34;;;;;;;17.67;11.68;;;;;;;;;;5048672;28;20063;-78
2022/12/03 02:19:00;;;;;;;20.10;12.30;;;;;;;;;;5036150;28;20044;-78
2022/12/03 02:21:40;;;;;;;19.25;12.48;;;;;;;;;;5051829;28;20048;-78
2022/12/03 02:24:11;;;;;;;20.25;12.38;;;;;;;;;;5047067;28;20040;-78
2022/12/03 02:26:37;;;;;;;20.98;13.15;;;;;;;;;;5041427;28;20051;-77
2022/12/03 02:29:03;;;;;;;18.98;12.57;;;;;;;;;;5069289;28;20048;-78
2022/12/03 02:31:29;;;;;;;20.38;13.23;;;;;;;;;;5046587;28;20062;-78
2022/12/03 02:33:55;;;;;;;21.50;12.55;;;;;;;;;;5047996;28;20064;-78
2022/12/03 02:36:22;;;;;;;21.58;12.98;;;;;;;;;;5047999;28;20060;-77
2022/12/03 02:38:49;;;;;;;18.67;12.82;;;;;;;;;;5046980;28;20113;-78
2022/12/03 02:42:33;;;;;;;20.60;13.35;;;;;;;;;;5047420;28;20048;-78
2022/12/03 02:44:03;;;;;;;20.98;12.45;;;;;;;;;;5064283;28;20444;-79
2022/12/03 02:46:29;;;;;;;21.50;13.57;;;;;;;;;;5043595;28;20066;-78
2022/12/03 02:48:55;;;;;;;21.63;13.07;;;;;;;;;;5046543;28;20052;-77
2022/12/03 02:51:21;;;;;;;21.63;12.63;;;;;;;;;;5046406;28;20058;-78
2022/12/03 02:53:48;;;;;;;20.88;12.40;;;;;;;;;;5045479;28;20567;-78
2022/12/03 02:56:17;;;;;;;19.92;13.45;;;;;;;;;;5045425;28;22013;-77
2022/12/03 02:58:46;;;;;;;22.15;13.02;;;;;;;;;;5044108;28;20084;-79
2022/12/03 03:01:14;;;;;;;20.25;13.52;;;;;;;;;;5030935;28;20049;-78
2022/12/03 03:03:40;;;;;;;19.80;12.73;;;;;;;;;;5042757;28;20062;-78
2022/12/03 03:06:07;;;;;;;21.30;13.98;;;;;;;;;;5036089;28;20053;-78
2022/12/03 03:08:34;;;;;;;21.45;13.57;;;;;;;;;;5041625;28;20126;-79
2022/12/03 03:11:01;;;;;;;19.98;12.60;;;;;;;;;;5045879;28;20052;-78
2022/12/03 03:13:29;;;;;;;24.38;12.93;;;;;;;;;;5044221;28;20056;-78
2022/12/03 03:15:55;;;;;;;25.15;13.80;;;;;;;;;;5063428;28;20131;-78
2022/12/03 03:18:21;;;;;;;20.52;13.52;;;;;;;;;;5027009;28;20047;-78
2022/12/03 03:20:47;;;;;;;22.00;13.40;;;;;;;;;;5046751;28;20662;-78
2022/12/03 03:23:18;;;;;;;22.67;13.82;;;;;;;;;;5048407;28;20854;-78
2022/12/03 03:25:46;;;;;;;23.38;14.15;;;;;;;;;;5048299;28;21724;-78
2022/12/03 03:28:13;;;;;;;21.35;14.27;;;;;;;;;;5047296;28;20068;-78
2022/12/03 03:30:40;;;;;;;22.23;14.02;;;;;;;;;;5045467;28;20063;-78
2022/12/03 03:33:06;;;;;;;22.70;13.70;;;;;;;;;;5039621;28;20048;-78
2022/12/03 03:35:32;;;;;;;21.38;13.35;;;;;;;;;;5048107;28;20056;-78
2022/12/03 03:37:59;;;;;;;22.40;13.60;;;;;;;;;;5035405;28;20040;-78
2022/12/03 03:40:25;;;;;;;20.80;13.30;;;;;;;;;;5044620;28;20049;-78
2022/12/03 03:42:51;;;;;;;22.33;13.68;;;;;;;;;;5038627;28;20044;-78
2022/12/03 03:45:17;;;;;;;25.77;14.18;;;;;;;;;;5060087;28;20044;-78
2022/12/03 03:47:44;;;;;;;27.92;14.70;;;;;;;;;;5057170;28;20055;-79
2022/12/03 03:50:11;;;;;;;22.23;13.13;;;;;;;;;;5060767;28;20590;-78
2022/12/03 03:52:38;;;;;;;21.92;14.25;;;;;;;;;;5054901;28;20111;-78
2022/12/03 03:55:05;;;;;;;22.45;14.05;;;;;;;;;;5063128;28;20075;-78
2022/12/03 03:57:31;;;;;;;23.92;14.25;;;;;;;;;;5044282;28;20070;-78
2022/12/03 03:59:58;;;;;;;21.30;13.75;;;;;;;;;;5078047;28;20067;-78
2022/12/03 04:02:26;;;;;;;26.23;14.63;;;;;;;;;;5060545;28;20048;-78
2022/12/03 04:04:52;;;;;;;21.35;13.10;;;;;;;;;;5058448;28;20061;-78
2022/12/03 04:07:18;;;;;;;23.77;14.70;;;;;;;;;;5060080;28;20058;-78
2022/12/03 04:09:44;;;;;;;22.45;13.57;;;;;;;;;;5056994;28;20048;-78
2022/12/03 04:14:58;;;;;;;22.70;14.32;;;;;;;;;;5076206;28;20042;-78
2022/12/03 04:17:24;;;;;;;26.08;14.55;;;;;;;;;;5042300;28;21591;-77
2022/12/03 04:19:50;;;;;;;24.13;14.13;;;;;;;;;;5081044;28;20059;-79
2022/12/03 04:30:30;;;;;;;25.80;14.02;;;;;;;;;;5048356;28;20050;-78
2022/12/03 04:35:41;;;;;;;25.50;14.85;;;;;;;;;;5048238;28;20050;-78
2022/12/03 04:38:07;;;;;;;22.65;13.63;;;;;;;;;;5048262;28;20060;-78
2022/12/03 04:43:18;;;;;;;23.77;14.73;;;;;;;;;;5037431;28;22013;-78
2022/12/03 04:45:44;;;;;;;24.45;14.75;;;;;;;;;;5071084;28;20043;-77
2022/12/03 04:48:10;;;;;;;27.27;14.52;;;;;;;;;;5069880;28;20675;-78
2022/12/03 04:50:36;;;;;;;22.52;14.02;;;;;;;;;;5050663;28;20067;-78
2022/12/03 04:53:02;;;;;;;23.98;14.80;;;;;;;;;;5051909;28;20044;-78
2022/12/03 04:55:28;;;;;;;25.73;14.20;;;;;;;;;;5051206;28;20055;-79
2022/12/03 04:57:54;;;;;;;21.92;14.13;;;;;;;;;;5041194;28;20054;-78
2022/12/03 05:00:20;;;;;;;25.55;15.48;;;;;;;;;;5062774;28;20056;-78
2022/12/03 05:02:46;;;;;;;24.02;14.80;;;;;;;;;;5048522;28;20132;-78
2022/12/03 05:05:13;;;;;;;23.77;14.18;;;;;;;;;;5040935;28;20238;-78
2022/12/03 05:07:39;;;;;;;23.92;15.25;;;;;;;;;;5048676;28;20051;-78
2022/12/03 05:10:05;;;;;;;24.00;13.88;;;;;;;;;;5043054;28;20051;-77
2022/12/03 05:12:31;;;;;;;24.58;14.10;;;;;;;;;;5033096;28;20052;-77
2022/12/03 05:14:57;;;;;;;22.65;12.82;;;;;;;;;;5045266;28;20048;-77
2022/12/03 05:17:23;;;;;;;21.77;13.02;;;;;;;;;;5045097;28;20056;-77
2022/12/03 05:22:34;;;;;;;19.95;12.80;;;;;;;;;;5047427;28;20133;-78
2022/12/03 05:25:00;;;;;;;22.30;13.00;;;;;;;;;;5047265;28;20044;-78
2022/12/03 05:27:26;;;;;;;20.23;12.75;;;;;;;;;;5032234;28;20048;-77
2022/12/03 05:29:52;;;;;;;21.83;13.02;;;;;;;;;;5046066;28;20081;-78
2022/12/03 05:32:19;;;;;;;20.67;12.82;;;;;;;;;;5031555;28;20051;-77
2022/12/03 05:34:45;;;;;;;21.13;12.40;;;;;;;;;;5046675;28;20048;-77
2022/12/03 05:37:11;;;;;;;21.25;13.20;;;;;;;;;;5047596;28;20137;-77
2022/12/03 05:39:37;;;;;;;22.08;13.35;;;;;;;;;;5031547;28;22142;-77
2022/12/03 05:44:48;;;;;;;20.75;13.20;;;;;;;;;;5061853;28;20395;-78
2022/12/03 05:47:14;;;;;;;23.60;11.95;;;;;;;;;;5027269;28;20063;-77
2022/12/03 05:49:40;;;;;;;22.10;12.88;;;;;;;;;;5044587;28;22267;-77
2022/12/03 05:52:06;;;;;;;24.27;13.25;;;;;;;;;;5060923;28;20198;-78
2022/12/03 05:54:32;;;;;;;26.25;13.80;;;;;;;;;;5059681;28;20427;-78
2022/12/03 05:56:58;;;;;;;23.45;13.65;;;;;;;;;;5039803;28;20059;-77
2022/12/03 05:59:25;;;;;;;22.20;13.02;;;;;;;;;;5056509;28;20048;-77
2022/12/03 06:01:51;;;;;;;24.15;13.32;;;;;;;;;;5041473;28;20071;-78
2022/12/03 06:04:17;;;;;;;20.40;13.57;;;;;;;;;;5039910;28;20045;-78
2022/12/03 06:06:43;;;;;;;25.65;14.00;;;;;;;;;;5048453;28;21347;-77
2022/12/03 06:09:09;;;;;;;22.02;12.20;;;;;;;;;;5041588;28;20054;-78
2022/12/03 06:11:36;;;;;;;21.27;12.75;;;;;;;;;;5042533;28;20036;-78
2022/12/03 06:14:02;;;;;;;21.98;12.85;;;;;;;;;;5042698;28;20515;-78
2022/12/03 06:16:28;;;;;;;20.88;12.45;;;;;;;;;;5062053;28;22172;-78
2022/12/03 06:18:54;;;;;;;21.70;13.13;;;;;;;;;;5047478;28;22045;-78
2022/12/03 06:21:20;;;;;;;22.08;12.18;;;;;;;;;;5044573;28;20056;-78
2022/12/03 06:23:46;;;;;;;21.55;13.05;;;;;;;;;;5042769;28;20082;-78
2022/12/03 06:26:13;;;;;;;21.02;12.57;;;;;;;;;;5042939;28;20067;-79
2022/12/03 06:28:44;;;;;;;21.30;12.93;;;;;;;;;;5061281;28;20174;-77
2022/12/03 06:31:11;;;;;;;22.27;12.93;;;;;;;;;;5031099;28;20066;-78
2022/12/03 06:33:37;;;;;;;23.05;12.32;;;;;;;;;;5029230;28;20095;-77
2022/12/03 06:36:03;;;;;;;20.20;12.63;;;;;;;;;;5025988;28;20052;-77
2022/12/03 06:38:29;;;;;;;21.92;12.35;;;;;;;;;;5058995;28;20101;-78
2022/12/03 06:40:55;;;;;;;23.58;12.73;;;;;;;;;;5041167;28;20079;-78
2022/12/03 06:43:21;;;;;;;21.52;12.60;;;;;;;;;;5040294;28;20052;-78
2022/12/03 06:45:47;;;;;;;21.42;11.98;;;;;;;;;;5045181;28;20139;-79
2022/12/03 06:48:14;;;;;;;19.02;10.88;;;;;;;;;;5040185;28;20446;-78
2022/12/03 06:50:40;;;;;;;21.05;11.55;;;;;;;;;;5039410;28;20586;-79
2022/12/03 06:53:06;;;;;;;24.42;11.93;;;;;;;;;;5044021;28;20049;-78
2022/12/03 06:55:32;;;;;;;24.70;13.05;;;;;;;;;;5034086;28;20051;-78
2022/12/03 06:57:58;;;;;;;22.63;13.65;;;;;;;;;;5044087;28;20052;-79
2022/12/03 07:00:24;;;;;;;24.10;13.38;;;;;;;;;;5026648;28;20493;-78
2022/12/03 07:02:50;;;;;;;23.35;13.77;;;;;;;;;;5028094;28;20642;-78
2022/12/03 07:05:16;;;;;;;22.48;11.80;;;;;;;;;;5021717;28;20157;-78
2022/12/03 07:07:42;;;;;;;21.17;12.05;;;;;;;;;;5041119;28;20050;-78
2022/12/03 07:10:08;;;;;;;20.33;11.77;;;;;;;;;;5041093;28;20060;-79
2022/12/03 07:12:34;;;;;;;21.02;12.05;;;;;;;;;;5037739;28;20641;-78
2022/12/03 07:15:01;;;;;;;19.80;11.80;;;;;;;;;;5037337;28;20056;-79
2022/12/03 07:17:27;;;;;;;21.60;11.27;;;;;;;;;;5063251;28;20055;-77
2022/12/03 07:19:53;;;;;;;20.92;12.07;;;;;;;;;;5040149;28;20052;-79
2022/12/03 07:22:19;;;;;;;21.55;12.27;;;;;;;;;;5026485;28;20136;-79
2022/12/03 07:24:45;;;;;;;25.23;12.50;;;;;;;;;;5036947;28;20048;-79
2022/12/03 07:27:11;;;;;;;21.13;11.73;;;;;;;;;;5062785;28;20105;-79
2022/12/03 07:29:37;;;;;;;21.92;12.98;;;;;;;;;;5031567;28;20055;-79
2022/12/03 07:32:03;;;;;;;22.40;13.13;;;;;;;;;;5027915;28;20055;-78
2022/12/03 07:34:29;;;;;;;23.60;12.70;;;;;;;;;;5061927;28;20048;-79
2022/12/03 07:36:55;;;;;;;24.90;12.70;;;;;;;;;;5043305;28;20463;-79
2022/12/03 07:39:21;;;;;;;28.17;13.43;;;;;;;;;;5060862;28;22013;-79
2022/12/03 07:41:47;;;;;;;26.27;14.38;;;;;;;;;;5043516;28;20043;-80
2022/12/03 07:44:13;;;;;;;23.35;12.98;;;;;;;;;;5043967;28;20122;-79
2022/12/03 07:46:39;;;;;;;24.10;12.93;;;;;;;;;;5025933;28;20048;-80
2022/12/03 07:49:05;;;;;;;22.02;12.93;;;;;;;;;;5042839;28;20048;-79
2022/12/03 07:51:32;;;;;;;24.17;13.10;;;;;;;;;;5029567;28;20051;-81
2022/12/03 07:53:58;;;;;;;25.70;13.80;;;;;;;;;;5045326;28;20062;-79
2022/12/03 07:56:24;;;;;;;22.20;13.13;;;;;;;;;;5044023;28;20055;-79
2022/12/03 07:58:50;;;;;;;25.40;13.90;;;;;;;;;;5043600;28;20063;-79
2022/12/03 08:01:16;;;;;;;24.10;13.23;;;;;;;;;;5026542;28;20059;-79
2022/12/03 08:03:42;;;;;;;23.90;13.95;;;;;;;;;;5041438;28;20519;-79
2022/12/03 08:06:08;;;;;;;25.13;13.60;;;;;;;;;;5027185;28;20764;-79
2022/12/03 08:08:34;;;;;;;22.83;13.45;;;;;;;;;;5043519;28;20048;-80
2022/12/03 08:11:01;;;;;;;25.77;13.85;;;;;;;;;;5043858;28;20048;-79
2022/12/03 08:13:27;;;;;;;24.02;13.55;;;;;;;;;;5047406;28;20047;-78
2022/12/03 08:15:59;;;;;;;21.80;13.10;;;;;;;;;;5030930;28;20076;-80
2022/12/03 08:18:25;;;;;;;28.67;13.60;;;;;;;;;;5050099;28;20070;-80
2022/12/03 08:20:51;;;;;;;24.85;15.02;;;;;;;;;;5037266;28;20056;-80
2022/12/03 08:23:18;;;;;;;26.98;15.05;;;;;;;;;;5052388;28;20044;-80
2022/12/03 08:25:45;;;;;;;25.40;14.20;;;;;;;;;;5032779;28;20045;-81
2022/12/03 08:28:12;;;;;;;25.67;14.38;;;;;;;;;;5051354;28;20048;-82
2022/12/03 08:30:39;;;;;;;28.50;14.85;;;;;;;;;;5052247;28;20197;-80
2022/12/03 08:33:37;;;;;;;25.80;14.30;;;;;;;;;;5054448;28;20044;-81
2022/12/03 08:36:27;;;;;;;28.33;14.82;;;;;;;;;;5032194;28;20547;-80
2022/12/03 08:38:58;;;;;;;28.35;14.77;;;;;;;;;;5040601;28;20435;-80
2022/12/03 08:44:16;;;;;;;28.08;15.00;;;;;;;;;;5071666;28;20048;-80
2022/12/03 08:46:42;;;;;;;31.98;15.68;;;;;;;;;;5072010;28;22341;-81
2022/12/03 08:49:09;;;;;;;24.63;15.05;;;;;;;;;;5050005;28;20455;-76
2022/12/03 08:51:35;;;;;;;29.23;15.68;;;;;;;;;;5052816;28;20048;-81
2022/12/03 08:54:06;;;;;;;28.20;15.25;;;;;;;;;;5056294;28;20079;-81
2022/12/03 08:56:35;;;;;;;26.52;15.52;;;;;;;;;;5051310;28;20060;-81
2022/12/03 08:59:20;;;;;;;26.33;14.85;;;;;;;;;;5049038;28;20429;-81
2022/12/03 09:01:47;;;;;;;29.02;15.82;;;;;;;;;;5050504;28;20066;-81
2022/12/03 09:04:25;;;;;;;27.08;14.43;;;;;;;;;;5047873;28;20134;-83
2022/12/03 09:06:52;;;;;;;29.42;15.18;;;;;;;;;;5049388;28;20143;-82
2022/12/03 09:09:18;;;;;;;25.60;14.55;;;;;;;;;;5067230;28;20048;-82
2022/12/03 09:11:44;;;;;;;28.60;15.52;;;;;;;;;;5050657;28;20059;-82
2022/12/03 09:14:11;;;;;;;29.30;15.43;;;;;;;;;;5049006;28;20069;-80
2022/12/03 09:16:37;;;;;;;25.85;14.82;;;;;;;;;;5050053;28;20044;-79
2022/12/03 09:19:05;;;;;;;26.92;14.05;;;;;;;;;;5047346;28;20059;-79
2022/12/03 09:21:31;;;;;;;26.70;14.93;;;;;;;;;;5033004;28;21812;-80
2022/12/03 09:23:57;;;;;;;33.05;16.27;;;;;;;;;;5054134;28;20083;-78
2022/12/03 09:26:23;;;;;;;27.73;15.13;;;;;;;;;;5046304;28;20045;-79
2022/12/03 09:28:49;;;;;;;24.92;14.60;;;;;;;;;;5029810;28;20044;-80
2022/12/03 09:31:15;;;;;;;29.58;15.63;;;;;;;;;;5036420;28;20053;-79
2022/12/03 09:33:42;;;;;;;26.55;15.77;;;;;;;;;;5046847;28;20060;-79
2022/12/03 09:36:08;;;;;;;29.20;15.23;;;;;;;;;;5045941;28;20048;-80
2022/12/03 09:38:34;;;;;;;27.70;15.35;;;;;;;;;;5047343;28;20122;-80
2022/12/03 09:41:00;;;;;;;26.88;14.95;;;;;;;;;;5069530;28;20565;-81
2022/12/03 09:43:28;;;;;;;24.55;14.82;;;;;;;;;;5045042;28;20246;-79
2022/12/03 09:45:54;;;;;;;30.05;15.13;;;;;;;;;;5044474;28;20163;-79
2022/12/03 09:48:20;;;;;;;28.42;15.32;;;;;;;;;;5045121;28;20048;-81
2022/12/03 09:50:47;;;;;;;26.95;15.68;;;;;;;;;;5047914;28;20662;-78
2022/12/03 09:53:15;;;;;;;27.67;15.02;;;;;;;;;;5048895;28;20741;-80
2022/12/03 09:55:42;;;;;;;25.15;15.85;;;;;;;;;;5046567;28;20131;-80
2022/12/03 09:58:12;;;;;;;24.80;14.75;;;;;;;;;;5044232;28;20464;-80
2022/12/03 10:00:38;;;;;;;26.35;14.48;;;;;;;;;;5023098;28;20043;-80
2022/12/03 10:03:05;;;;;;;23.98;14.10;;;;;;;;;;5044054;28;20949;-79
2022/12/03 10:05:32;;;;;;;22.98;14.02;;;;;;;;;;5061544;28;20166;-79
2022/12/03 10:08:08;;;;;;;26.27;14.48;;;;;;;;;;5032878;28;20044;-79
2022/12/03 10:10:35;;;;;;;25.45;14.60;;;;;;;;;;5052178;28;20140;-81
2022/12/03 10:13:01;;;;;;;25.23;14.20;;;;;;;;;;5050327;28;22073;-79
2022/12/03 10:15:27;;;;;;;24.75;14.02;;;;;;;;;;5063737;28;20512;-80
2022/12/03 10:17:54;;;;;;;24.38;15.00;;;;;;;;;;5049018;28;20047;-80
2022/12/03 10:20:21;;;;;;;24.45;14.05;;;;;;;;;;5047634;28;22085;-80
2022/12/03 10:22:48;;;;;;;29.88;14.98;;;;;;;;;;5048401;28;20082;-79
2022/12/03 10:25:16;;;;;;;28.35;15.52;;;;;;;;;;5044761;28;20051;-81
2022/12/03 10:27:42;;;;;;;29.73;15.18;;;;;;;;;;5045753;28;20067;-81
2022/12/03 10:30:16;;;;;;;25.92;15.25;;;;;;;;;;5026489;28;20129;-81
2022/12/03 10:32:44;;;;;;;26.90;15.77;;;;;;;;;;5047444;28;20066;-80
2022/12/03 10:35:15;;;;;;;26.60;15.23;;;;;;;;;;5041947;28;20182;-81
2022/12/03 10:38:01;;;;;;;25.52;15.38;;;;;;;;;;5032634;28;20510;-81
2022/12/03 10:40:29;;;;;;;26.83;16.00;;;;;;;;;;5050877;28;20062;-80
2022/12/03 10:43:12;;;;;;;28.15;15.93;;;;;;;;;;5050620;28;20084;-81
2022/12/03 10:45:38;;;;;;;25.70;14.35;;;;;;;;;;5047904;28;20274;-80
2022/12/03 10:48:26;;;;;;;26.15;15.73;;;;;;;;;;5051592;28;20058;-80
2022/12/03 10:50:56;;;;;;;25.85;14.48;;;;;;;;;;5049975;28;21135;-80
2022/12/03 10:53:23;;;;;;;24.95;14.80;;;;;;;;;;5049218;28;20077;-80
2022/12/03 10:55:50;;;;;;;27.75;16.25;;;;;;;;;;5049187;28;20484;-81
2022/12/03 10:58:21;;;;;;;25.55;15.23;;;;;;;;;;5028748;28;20052;-79
2022/12/03 11:00:48;;;;;;;29.98;16.08;;;;;;;;;;5050883;28;20052;-80
2022/12/03 11:03:19;;;;;;;28.42;15.65;;;;;;;;;;5051687;28;20064;-80
2022/12/03 11:05:45;;;;;;;31.55;16.27;;;;;;;;;;5044460;28;20067;-80
2022/12/03 11:08:34;;;;;;;28.55;16.50;;;;;;;;;;5033982;28;20048;-79
2022/12/03 11:11:05;;;;;;;30.20;16.67;;;;;;;;;;5037706;28;20062;-80
2022/12/03 11:13:34;;;;;;;28.50;15.80;;;;;;;;;;5047154;28;20060;-80
2022/12/03 11:16:01;;;;;;;26.50;15.43;;;;;;;;;;5045849;28;20090;-79
2022/12/03 11:18:36;;;;;;;29.65;16.25;;;;;;;;;;5045248;28;20235;-81
2022/12/03 11:21:04;;;;;;;29.88;16.38;;;;;;;;;;5047910;28;20044;-80
2022/12/03 11:23:46;;;;;;;28.55;16.05;;;;;;;;;;5045260;28;20137;-79
2022/12/03 11:26:13;;;;;;;27.42;15.40;;;;;;;;;;5029883;28;20174;-79
2022/12/03 11:28:45;;;;;;;29.00;15.25;;;;;;;;;;5041895;28;20044;-80
2022/12/03 11:31:30;;;;;;;28.67;16.08;;;;;;;;;;5046574;28;20056;-79
2022/12/03 11:34:14;;;;;;;29.95;16.52;;;;;;;;;;5029466;28;20608;-81
2022/12/03 11:36:59;;;;;;;29.98;16.15;;;;;;;;;;5062502;28;20052;-81
2022/12/03 11:39:46;;;;;;;28.98;16.95;;;;;;;;;;5020938;28;20044;-79
2022/12/03 11:42:24;;;;;;;30.55;17.33;;;;;;;;;;5043209;28;20600;-79
2022/12/03 11:45:03;;;;;;;28.63;16.73;;;;;;;;;;5041981;28;20533;-80
2022/12/03 11:47:48;;;;;;;29.23;17.10;;;;;;;;;;5043023;28;20434;-79
2022/12/03 11:50:17;;;;;;;30.15;17.40;;;;;;;;;;5023516;28;20605;-78
2022/12/03 11:52:46;;;;;;;26.73;16.55;;;;;;;;;;5038652;28;20465;-79
2022/12/03 11:55:32;;;;;;;31.98;17.88;;;;;;;;;;5045273;28;20056;-80
2022/12/03 11:58:03;;;;;;;30.13;16.30;;;;;;;;;;5052657;28;20167;-80
2022/12/03 12:00:29;;;;;;;26.30;15.60;;;;;;;;;;5068000;28;20074;-79
2022/12/03 12:02:56;;;;;;;28.65;17.10;;;;;;;;;;5031223;28;20063;-80
2022/12/03 12:05:22;;;;;;;28.35;15.95;;;;;;;;;;5048392;28;20051;-80
2022/12/03 12:07:49;;;;;;;30.27;17.48;;;;;;;;;;5047161;28;20151;-80
2022/12/03 12:10:33;;;;;;;30.88;17.00;;;;;;;;;;5063155;28;20056;-80
2022/12/03 12:12:59;;;;;;;29.02;18.50;;;;;;;;;;5045761;28;20059;-80
2022/12/03 12:15:38;;;;;;;29.17;18.45;;;;;;;;;;5045097;28;20049;-80
2022/12/03 12:18:23;;;;;;;29.23;17.13;;;;;;;;;;5048825;28;20047;-79
2022/12/03 12:20:49;;;;;;;31.17;17.45;;;;;;;;;;5048073;28;20515;-76
2022/12/03 12:23:27;;;;;;;29.42;17.02;;;;;;;;;;5051097;28;20052;-76
2022/12/03 12:26:04;;;;;;;28.83;16.55;;;;;;;;;;5051892;28;20057;-76
2022/12/03 12:28:31;;;;;;;29.05;16.00;;;;;;;;;;5050420;28;20044;-76
2022/12/03 12:30:57;;;;;;;31.15;16.95;;;;;;;;;;5050073;28;20120;-76
2022/12/03 12:33:24;;;;;;;29.67;17.23;;;;;;;;;;5021236;28;20975;-76
2022/12/03 12:35:51;;;;;;;29.10;17.45;;;;;;;;;;5033698;28;22401;-76
2022/12/03 12:38:20;;;;;;;27.88;17.45;;;;;;;;;;5069440;28;20092;-76
2022/12/03 12:40:48;;;;;;;32.05;18.27;;;;;;;;;;5049982;28;20056;-76
2022/12/03 12:43:22;;;;;;;32.20;19.27;;;;;;;;;;5069079;28;20044;-77
2022/12/03 12:45:49;;;;;;;31.75;18.73;;;;;;;;;;5040590;28;20124;-76
2022/12/03 12:48:23;;;;;;;32.05;16.75;;;;;;;;;;5069866;28;20048;-76
2022/12/03 12:51:07;;;;;;;32.35;17.48;;;;;;;;;;5068233;28;20060;-76
2022/12/03 12:53:33;;;;;;;;;;;;;;;;;;5050270;28;20056;-77
2022/12/03 12:56:01;;;;;;;28.67;16.52;;;;;;;;;;5055090;28;19924;-75
2022/12/03 12:58:29;;;;;;;29.05;17.40;;;;;;;;;;5063589;28;20053;-75
2022/12/03 13:00:57;;;;;;;29.67;18.13;;;;;;;;;;5065401;28;20446;-75
2022/12/03 13:03:24;;;;;;;29.40;18.17;;;;;;;;;;5041945;28;20488;-76
2022/12/03 13:05:51;;;;;;;34.65;18.30;;;;;;;;;;5040329;28;20051;-75
2022/12/03 13:08:26;;;;;;;37.33;18.52;;;;;;;;;;5042088;28;20055;-75
2022/12/03 13:10:56;;;;;;;31.63;18.08;;;;;;;;;;5038183;28;20530;-75
2022/12/03 13:13:30;;;;;;;34.90;18.30;;;;;;;;;;5039615;28;20854;-76
2022/12/03 13:16:05;;;;;;;37.60;19.65;;;;;;;;;;5041339;28;20048;-75
2022/12/03 13:18:44;;;;;;;37.58;20.08;;;;;;;;;;5028897;28;20087;-75
2022/12/03 13:21:17;;;;;;;34.38;18.23;;;;;;;;;;5060708;28;20068;-76
2022/12/03 13:23:43;;;;;;;36.78;19.13;;;;;;;;;;5045358;28;20075;-75
2022/12/03 13:26:23;;;;;;;36.08;19.70;;;;;;;;;;5064067;28;20109;-75
2022/12/03 13:28:50;;;;;;;37.92;19.55;;;;;;;;;;5031890;28;20058;-75
2022/12/03 13:31:24;;;;;;;38.95;20.55;;;;;;;;;;5033838;28;20063;-76
2022/12/03 13:33:50;;;;;;;34.05;17.70;;;;;;;;;;5044528;28;20068;-76
2022/12/03 13:36:18;;;;;;;32.50;17.45;;;;;;;;;;5033071;28;20467;-75
2022/12/03 13:38:45;;;;;;;29.70;17.58;;;;;;;;;;5044718;28;20060;-74
2022/12/03 13:44:12;;;;;;;29.88;17.77;;;;;;;;;;5063841;28;21904;-75
2022/12/03 13:46:38;;;;;;;26.87;16.50;;;;;;;;;;5044628;28;22073;-75
2022/12/03 13:49:11;;;;;;;29.63;17.42;;;;;;;;;;5036661;28;20048;-74
2022/12/03 13:51:37;;;;;;;30.42;17.55;;;;;;;;;;5050863;28;20085;-74
2022/12/03 13:54:05;;;;;;;30.30;17.35;;;;;;;;;;5066061;28;20048;-75
2022/12/03 13:56:32;;;;;;;31.48;17.67;;;;;;;;;;5043841;28;20075;-75
2022/12/03 13:58:59;;;;;;;30.83;17.77;;;;;;;;;;5044446;28;20094;-74
2022/12/03 14:01:29;;;;;;;31.65;17.80;;;;;;;;;;5044246;28;20055;-74
2022/12/03 14:03:55;;;;;;;33.55;17.52;;;;;;;;;;5063279;28;20055;-75
2022/12/03 14:06:22;;;;;;;33.45;19.42;;;;;;;;;;5043493;28;20688;-75
2022/12/03 14:08:48;;;;;;;35.05;19.05;;;;;;;;;;5062472;28;20041;-75
2022/12/03 14:13:59;;;;;;;36.50;18.48;;;;;;;;;;5060744;28;20043;-74
2022/12/03 14:16:25;;;;;;;32.50;18.58;;;;;;;;;;5042652;28;20476;-75
2022/12/03 14:18:52;;;;;;;34.13;18.08;;;;;;;;;;5024503;28;20079;-74
2022/12/03 14:21:18;;;;;;;35.38;18.60;;;;;;;;;;5044066;28;20049;-74
2022/12/03 14:23:44;;;;;;;31.50;18.75;;;;;;;;;;5023426;28;20766;-75
2022/12/03 14:26:10;;;;;;;38.60;21.25;;;;;;;;;;5058383;28;20044;-75
2022/12/03 14:28:36;;;;;;;33.38;17.98;;;;;;;;;;5062492;28;20576;-74
2022/12/03 14:31:02;;;;;;;36.75;19.83;;;;;;;;;;5061571;28;20158;-75
2022/12/03 14:33:28;;;;;;;38.53;19.52;;;;;;;;;;5061509;28;20547;-75
2022/12/03 14:35:55;;;;;;;34.40;20.00;;;;;;;;;;5028103;28;20507;-74
2022/12/03 14:38:21;;;;;;;33.78;19.05;;;;;;;;;;5061795;28;20063;-75
2022/12/03 14:40:47;;;;;;;32.63;18.25;;;;;;;;;;5041112;28;20082;-75
2022/12/03 14:43:13;;;;;;;35.17;19.60;;;;;;;;;;5045670;28;20159;-75
2022/12/03 14:45:39;;;;;;;31.90;17.27;;;;;;;;;;5042206;28;20108;-74
2022/12/03 14:48:05;;;;;;;32.97;18.15;;;;;;;;;;5058745;28;20164;-74
2022/12/03 14:50:31;;;;;;;32.53;18.17;;;;;;;;;;5060003;28;20094;-75
2022/12/03 14:52:57;;;;;;;30.33;18.10;;;;;;;;;;5044965;28;20589;-75
2022/12/03 14:55:23;;;;;;;32.22;17.90;;;;;;;;;;5059480;28;20382;-75